Time;durP1;ratioP1;P1;durP2;ratioP2;P2;SDS_P1;SDS_P2;PMS_P1;PMS_P2;Temp;Humidity;BMP_temperature;BMP_pressure;BME280_temperature;BME280_humidity;BME280_pressure;Samples;Min_cycle;Max_cycle;Signal;HPM_P1;HPM_P2
2022/10/26 00:00:23;;;;;;;;;;;7.80;99.90;;;;;;4969693;28;20340;-78
2022/10/26 00:02:48;;;;;;;;;;;7.80;99.90;;;;;;4975356;28;19992;-78
2022/10/26 00:05:14;;;;;;;;;;;7.80;99.90;;;;;;4953532;28;19910;-79
2022/10/26 00:07:39;;;;;;;;;;;7.60;99.90;;;;;;4958673;28;19971;-78
2022/10/26 00:10:04;;;;;;;;;;;7.60;99.90;;;;;;4968367;28;20278;-79
2022/10/26 00:12:30;;;;;;;;;;;7.50;99.90;;;;;;4973211;28;20115;-78
2022/10/26 00:14:55;;;;;;;;;;;7.40;99.90;;;;;;4973680;28;20337;-78
2022/10/26 00:17:21;;;;;;;;;;;7.40;99.90;;;;;;4960364;28;19929;-78
2022/10/26 00:19:46;;;;;;;;;;;7.50;99.90;;;;;;4971736;28;19906;-78
2022/10/26 00:22:11;;;;;;;;;;;7.50;99.90;;;;;;4963400;28;19914;-79
2022/10/26 00:24:37;;;;;;;;;;;7.60;99.90;;;;;;4973174;28;20297;-78
2022/10/26 00:27:02;;;;;;;;;;;7.60;99.90;;;;;;4963544;28;19921;-78
2022/10/26 00:29:28;;;;;;;;;;;7.60;99.90;;;;;;4973014;28;19953;-78
2022/10/26 00:31:55;;;;;;;;;;;7.50;99.90;;;;;;4974120;28;19914;-78
2022/10/26 00:34:21;;;;;;;;;;;7.50;99.90;;;;;;4974018;28;19940;-78
2022/10/26 00:36:46;;;;;;;;;;;7.50;99.90;;;;;;4963455;28;19909;-79
2022/10/26 00:39:12;;;;;;;;;;;7.50;99.90;;;;;;4971849;28;19909;-79
2022/10/26 00:41:38;;;;;;;;;;;7.50;99.90;;;;;;4968416;28;19913;-79
2022/10/26 00:44:22;;;;;;;;;;;7.50;99.90;;;;;;4963153;28;19914;-78
2022/10/26 00:46:47;;;;;;;;;;;7.50;99.90;;;;;;4971611;28;20489;-78
2022/10/26 00:49:15;;;;;;;;;;;7.40;99.90;;;;;;4968762;28;19910;-79
2022/10/26 00:51:43;;;;;;;;;;;7.40;99.90;;;;;;4974700;28;19945;-79
2022/10/26 00:54:12;;;;;;;;;;;7.40;99.90;;;;;;4952843;28;20251;-79
2022/10/26 00:56:38;;;;;;;;;;;7.30;99.90;;;;;;4975069;28;20293;-79
2022/10/26 00:59:08;;;;;;;;;;;7.40;99.90;;;;;;4960973;28;19954;-78
2022/10/26 01:01:34;;;;;;;;;;;7.40;99.90;;;;;;4964087;28;20186;-78
2022/10/26 01:04:00;;;;;;;;;;;7.40;99.90;;;;;;4960077;28;19949;-79
2022/10/26 01:06:30;;;;;;;;;;;7.40;99.90;;;;;;4953697;28;20000;-78
2022/10/26 01:08:55;;;;;;;;;;;7.40;99.90;;;;;;4962883;28;19910;-78
2022/10/26 01:11:20;;;;;;;;;;;7.40;99.90;;;;;;4983239;28;19911;-79
2022/10/26 01:13:47;;;;;;;;;;;7.30;99.90;;;;;;4967652;28;20281;-78
2022/10/26 01:16:15;;;;;;;;;;;7.30;99.90;;;;;;4967563;28;19910;-79
2022/10/26 01:18:53;;;;;;;;;;;7.30;99.90;;;;;;4965011;28;20025;-78
2022/10/26 01:21:30;;;;;;;;;;;7.30;99.90;;;;;;4975441;28;19916;-78
2022/10/26 01:24:02;;;;;;;;;;;7.20;99.90;;;;;;4954969;28;19914;-79
2022/10/26 01:26:46;;;;;;;;;;;7.20;99.90;;;;;;4966578;28;19917;-78
2022/10/26 01:29:32;;;;;;;;;;;7.30;99.90;;;;;;4954296;28;19953;-78
2022/10/26 01:32:08;;;;;;;;;;;7.20;99.90;;;;;;4971563;28;20001;-79
2022/10/26 01:34:35;;;;;;;;;;;7.20;99.90;;;;;;4953372;28;20001;-79
2022/10/26 01:37:16;;;;;;;;;;;7.20;99.90;;;;;;4971227;28;20356;-78
2022/10/26 01:39:44;;;;;;;;;;;7.20;99.90;;;;;;4956873;28;19960;-78
2022/10/26 01:42:11;;;;;;;;;;;7.20;99.90;;;;;;4968909;28;19917;-78
2022/10/26 01:44:41;;;;;;;;;;;7.10;99.90;;;;;;4957351;28;19910;-78
2022/10/26 01:47:08;;;;;;;;;;;7.10;99.90;;;;;;4964552;28;19985;-78
2022/10/26 01:49:35;;;;;;;;;;;7.10;99.90;;;;;;4957967;28;19918;-78
2022/10/26 01:52:01;;;;;;;;;;;7.10;99.90;;;;;;4967766;28;19914;-78
2022/10/26 01:54:27;;;;;;;;;;;7.00;99.90;;;;;;4958608;28;20270;-78
2022/10/26 01:56:55;;;;;;;;;;;7.00;99.90;;;;;;4957516;28;19917;-78
2022/10/26 01:59:32;;;;;;;;;;;7.00;99.90;;;;;;4958163;28;19918;-78
2022/10/26 02:01:57;;;;;;;;;;;7.00;99.90;;;;;;4962491;28;19918;-78
2022/10/26 02:04:42;;;;;;;;;;;7.00;99.90;;;;;;4971958;28;19916;-78
2022/10/26 02:07:19;;;;;;;;;;;7.00;99.90;;;;;;4955859;28;19910;-78
2022/10/26 02:09:58;;;;;;;;;;;6.90;99.90;;;;;;4957015;28;19914;-78
2022/10/26 02:12:30;;;;;;;;;;;6.90;99.90;;;;;;4960105;28;19919;-78
2022/10/26 02:15:25;;;;;;;;;;;6.80;99.90;;;;;;4957504;28;19993;-78
2022/10/26 02:18:03;;;;;;;;;;;6.90;99.90;;;;;;4970107;28;20368;-78
2022/10/26 02:20:33;;;;;;;;;;;6.90;99.90;;;;;;4970212;28;19955;-78
2022/10/26 02:23:00;;;;;;;;;;;6.90;99.90;;;;;;4974208;28;19916;-78
2022/10/26 02:25:27;;;;;;;;;;;6.90;99.90;;;;;;4959106;28;20277;-79
2022/10/26 02:27:55;;;;;;;;;;;6.80;99.90;;;;;;4964225;28;19910;-78
2022/10/26 02:30:21;;;;;;;;;;;6.80;99.90;;;;;;4971363;28;19932;-78
2022/10/26 02:32:54;;;;;;;;;;;6.80;99.90;;;;;;4966580;28;19918;-78
2022/10/26 02:35:22;;;;;;;;;;;6.80;99.90;;;;;;4961517;28;19989;-78
2022/10/26 02:37:48;;;;;;;;;;;6.80;99.90;;;;;;4977261;28;19913;-78
2022/10/26 02:40:17;;;;;;;;;;;6.80;99.90;;;;;;4966353;28;19924;-78
2022/10/26 02:42:44;;;;;;;;;;;6.70;99.90;;;;;;4965771;28;19915;-78
2022/10/26 02:45:10;;;;;;;;;;;6.60;99.90;;;;;;4974504;28;19916;-78
2022/10/26 02:47:36;;;;;;;;;;;6.60;99.90;;;;;;4960275;28;19965;-78
2022/10/26 02:50:02;;;;;;;;;;;6.60;99.90;;;;;;4968511;28;20416;-78
2022/10/26 02:52:37;;;;;;;;;;;6.70;99.90;;;;;;4961527;28;19918;-77
2022/10/26 02:55:06;;;;;;;;;;;6.60;99.90;;;;;;4959507;28;20282;-78
2022/10/26 02:57:39;;;;;;;;;;;6.60;99.90;;;;;;4959710;28;19914;-78
2022/10/26 03:00:09;;;;;;;;;;;6.60;99.90;;;;;;4967166;28;20333;-78
2022/10/26 03:02:34;;;;;;;;;;;6.50;99.90;;;;;;4970680;28;19914;-77
2022/10/26 03:05:14;;;;;;;;;;;6.40;99.90;;;;;;4962570;28;19916;-78
2022/10/26 03:07:39;;;;;;;;;;;6.50;99.90;;;;;;4961901;28;20328;-78
2022/10/26 03:10:05;;;;;;;;;;;6.50;99.90;;;;;;4963433;28;19997;-78
2022/10/26 03:12:31;;;;;;;;;;;6.50;99.90;;;;;;4973999;28;19910;-78
2022/10/26 03:14:56;;;;;;;;;;;6.50;99.90;;;;;;4974133;28;19909;-79
2022/10/26 03:17:22;;;;;;;;;;;6.50;99.90;;;;;;4971695;28;19910;-79
2022/10/26 03:19:47;;;;;;;;;;;6.50;99.90;;;;;;4959026;28;20357;-79
2022/10/26 03:22:12;;;;;;;;;;;6.50;99.90;;;;;;4985128;28;19914;-79
2022/10/26 03:24:38;;;;;;;;;;;6.50;99.90;;;;;;4967243;28;19912;-79
2022/10/26 03:27:03;;;;;;;;;;;6.50;99.90;;;;;;4961411;28;19948;-81
2022/10/26 03:29:29;;;;;;;;;;;6.50;99.90;;;;;;4980514;28;19921;-84
2022/10/26 03:31:54;;;;;;;;;;;6.50;99.90;;;;;;4964570;28;20008;-80
2022/10/26 03:34:20;;;;;;;;;;;6.50;99.90;;;;;;4960168;28;20009;-81
2022/10/26 03:36:46;;;;;;;;;;;6.50;99.90;;;;;;4968777;28;19920;-80
2022/10/26 03:39:11;;;;;;;;;;;6.50;99.90;;;;;;4964463;28;19932;-79
2022/10/26 03:41:37;;;;;;;;;;;6.40;99.90;;;;;;4978814;28;19917;-79
2022/10/26 03:44:02;;;;;;;;;;;6.40;99.90;;;;;;4964528;28;19921;-79
2022/10/26 03:46:27;;;;;;;;;;;6.40;99.90;;;;;;4965404;28;19910;-79
2022/10/26 03:48:53;;;;;;;;;;;6.40;99.90;;;;;;4961128;28;20373;-79
2022/10/26 03:51:18;;;;;;;;;;;6.40;99.90;;;;;;4987560;28;20312;-79
2022/10/26 03:53:44;;;;;;;;;;;6.30;99.90;;;;;;4974763;28;20439;-78
2022/10/26 03:56:09;;;;;;;;;;;6.40;99.90;;;;;;4972046;28;20380;-78
2022/10/26 03:58:34;;;;;;;;;;;6.30;99.90;;;;;;4954868;28;19965;-78
2022/10/26 04:01:00;;;;;;;;;;;6.30;99.90;;;;;;4961397;28;19910;-78
2022/10/26 04:03:25;;;;;;;;;;;6.30;99.90;;;;;;4975552;28;19910;-79
2022/10/26 04:05:51;;;;;;;;;;;6.20;99.90;;;;;;4972347;28;19910;-78
2022/10/26 04:08:16;;;;;;;;;;;6.20;99.90;;;;;;4976934;28;19910;-78
2022/10/26 04:10:44;;;;;;;;;;;6.10;99.90;;;;;;4954717;28;20266;-79
2022/10/26 04:13:10;;;;;;;;;;;6.20;99.90;;;;;;4968020;28;20016;-78
2022/10/26 04:15:35;;;;;;;;;;;6.20;99.90;;;;;;4964634;28;20420;-79
2022/10/26 04:18:01;;;;;;;;;;;6.20;99.90;;;;;;4988912;28;20001;-79
2022/10/26 04:20:27;;;;;;;;;;;6.20;99.90;;;;;;4979848;28;19911;-79
2022/10/26 04:23:00;;;;;;;;;;;6.20;99.90;;;;;;4966879;28;19917;-78
2022/10/26 04:25:26;;;;;;;;;;;6.20;99.90;;;;;;4978308;28;19918;-78
2022/10/26 04:27:51;;;;;;;;;;;6.20;99.90;;;;;;4971920;28;19905;-78
2022/10/26 04:30:17;;;;;;;;;;;6.30;99.90;;;;;;4982398;28;20531;-79
2022/10/26 04:32:43;;;;;;;;;;;6.20;99.90;;;;;;4958890;28;19917;-78
2022/10/26 04:35:08;;;;;;;;;;;6.20;99.90;;;;;;4974457;28;19964;-79
2022/10/26 04:37:33;;;;;;;;;;;6.20;99.90;;;;;;4957286;28;20053;-79
2022/10/26 04:39:59;;;;;;;;;;;6.20;99.90;;;;;;4958787;28;20256;-79
2022/10/26 04:42:24;;;;;;;;;;;6.20;99.90;;;;;;4978693;28;19914;-79
2022/10/26 04:44:50;;;;;;;;;;;6.20;99.90;;;;;;4989362;28;20383;-78
2022/10/26 04:47:15;;;;;;;;;;;6.20;99.90;;;;;;4968911;28;19906;-78
2022/10/26 04:49:40;;;;;;;;;;;6.10;99.90;;;;;;4965903;28;19921;-78
2022/10/26 04:52:06;;;;;;;;;;;6.10;99.90;;;;;;4977561;28;19906;-73
2022/10/26 04:54:31;;;;;;;;;;;6.10;99.90;;;;;;4957464;28;19929;-77
2022/10/26 04:56:56;;;;;;;;;;;6.00;99.90;;;;;;4974529;28;19914;-77
2022/10/26 04:59:22;;;;;;;;;;;6.00;99.90;;;;;;4970377;28;19906;-78
2022/10/26 05:01:47;;;;;;;;;;;6.00;99.90;;;;;;4963967;28;19957;-76
2022/10/26 05:04:13;;;;;;;;;;;6.00;99.90;;;;;;4981710;28;20000;-77
2022/10/26 05:06:38;;;;;;;;;;;5.90;99.90;;;;;;4971709;28;19913;-77
2022/10/26 05:09:04;;;;;;;;;;;6.00;99.90;;;;;;4965255;28;19985;-76
2022/10/26 05:11:29;;;;;;;;;;;5.90;99.90;;;;;;4956864;28;19918;-75
2022/10/26 05:13:55;;;;;;;;;;;5.90;99.90;;;;;;4967835;28;20000;-75
2022/10/26 05:16:20;;;;;;;;;;;5.90;99.90;;;;;;4965312;28;19910;-76
2022/10/26 05:18:48;;;;;;;;;;;5.90;99.90;;;;;;4964083;28;19945;-76
2022/10/26 05:21:18;;;;;;;;;;;5.90;99.90;;;;;;4963018;28;19928;-76
2022/10/26 05:23:52;;;;;;;;;;;5.90;99.90;;;;;;4966850;28;19910;-76
2022/10/26 05:26:18;;;;;;;;;;;5.80;99.90;;;;;;4966251;28;19911;-76
2022/10/26 05:28:44;;;;;;;;;;;5.80;99.90;;;;;;4963230;28;19945;-76
2022/10/26 05:31:09;;;;;;;;;;;5.80;99.90;;;;;;4962518;28;19961;-76
2022/10/26 05:33:34;;;;;;;;;;;5.80;99.90;;;;;;4966448;28;19921;-76
2022/10/26 05:36:00;;;;;;;;;;;5.80;99.90;;;;;;4967657;28;20078;-76
2022/10/26 05:38:25;;;;;;;;;;;5.80;99.90;;;;;;4964999;28;20337;-76
2022/10/26 05:40:52;;;;;;;;;;;5.80;99.90;;;;;;4966407;28;20349;-76
2022/10/26 05:43:18;;;;;;;;;;;5.80;99.90;;;;;;4962552;28;19917;-76
2022/10/26 05:45:43;;;;;;;;;;;5.70;99.90;;;;;;4965403;28;19910;-76
2022/10/26 05:48:09;;;;;;;;;;;5.80;99.90;;;;;;4957378;28;19910;-76
2022/10/26 05:50:34;;;;;;;;;;;5.70;99.90;;;;;;4964049;28;19976;-77
2022/10/26 05:53:00;;;;;;;;;;;5.80;99.90;;;;;;4964002;28;19922;-76
2022/10/26 05:55:25;;;;;;;;;;;5.80;99.90;;;;;;4966609;28;19910;-76
2022/10/26 05:57:51;;;;;;;;;;;5.90;99.90;;;;;;4955861;28;19925;-76
2022/10/26 06:00:17;;;;;;;;;;;5.90;99.90;;;;;;4962450;28;20040;-76
2022/10/26 06:03:01;;;;;;;;;;;5.80;99.90;;;;;;4960652;28;19933;-77
2022/10/26 06:05:29;;;;;;;;;;;5.80;99.90;;;;;;4966273;28;19910;-78
2022/10/26 06:07:55;;;;;;;;;;;5.80;99.90;;;;;;4965928;28;19925;-77
2022/10/26 06:10:20;;;;;;;;;;;5.90;99.90;;;;;;4964174;28;19918;-77
2022/10/26 06:12:46;;;;;;;;;;;5.80;99.90;;;;;;4966596;28;20389;-77
2022/10/26 06:15:16;;;;;;;;;;;5.80;99.90;;;;;;4961270;28;19910;-77
2022/10/26 06:17:52;;;;;;;;;;;5.90;99.90;;;;;;4957024;28;19914;-77
2022/10/26 06:20:29;;;;;;;;;;;5.90;99.90;;;;;;4960638;28;19922;-77
2022/10/26 06:23:00;;;;;;;;;;;6.00;99.90;;;;;;4963321;28;19918;-77
2022/10/26 06:25:47;;;;;;;;;;;6.00;99.90;;;;;;4964261;28;19910;-78
2022/10/26 06:28:31;;;;;;;;;;;6.10;99.90;;;;;;4962178;28;19917;-77
2022/10/26 06:30:57;;;;;;;;;;;6.20;99.90;;;;;;4962473;28;20920;-77
2022/10/26 06:33:23;;;;;;;;;;;6.10;99.90;;;;;;4959867;28;19922;-77
2022/10/26 06:36:03;;;;;;;;;;;6.10;99.90;;;;;;4956877;28;19910;-77
2022/10/26 06:38:31;;;;;;;;;;;6.20;99.90;;;;;;4958144;28;20309;-77
2022/10/26 06:40:58;;;;;;;;;;;6.30;99.90;;;;;;4960813;28;19914;-77
2022/10/26 06:43:24;;;;;;;;;;;6.40;99.90;;;;;;4956793;28;20017;-78
2022/10/26 06:45:55;;;;;;;;;;;6.40;99.90;;;;;;4967256;28;20001;-77
2022/10/26 06:48:23;;;;;;;;;;;6.50;99.90;;;;;;4955270;28;19910;-77
2022/10/26 06:50:50;;;;;;;;;;;6.50;99.90;;;;;;4949691;28;19938;-77
2022/10/26 06:53:20;;;;;;;;;;;6.60;99.90;;;;;;4957112;28;19922;-77
2022/10/26 06:55:47;;;;;;;;;;;6.60;99.90;;;;;;4955149;28;19983;-77
2022/10/26 06:58:14;;;;;;;;;;;6.70;99.90;;;;;;4947495;28;20285;-77
2022/10/26 07:00:40;;;;;;;;;;;6.70;99.90;;;;;;4957182;28;19945;-77
2022/10/26 07:03:05;;;;;;;;;;;6.80;99.90;;;;;;4954525;28;19910;-78
2022/10/26 07:05:31;;;;;;;;;;;6.80;99.90;;;;;;4947743;28;20001;-77
2022/10/26 07:07:56;;;;;;;;;;;6.90;99.90;;;;;;4950806;28;20141;-78
2022/10/26 07:10:22;;;;;;;;;;;7.00;99.90;;;;;;4950301;28;20450;-77
2022/10/26 07:12:48;;;;;;;;;;;7.10;99.90;;;;;;4955042;28;19988;-78
2022/10/26 07:15:14;;;;;;;;;;;7.10;99.90;;;;;;4956013;28;20390;-79
2022/10/26 07:17:43;;;;;;;;;;;7.20;99.90;;;;;;4950219;28;20020;-78
2022/10/26 07:20:09;;;;;;;;;;;7.30;99.90;;;;;;4951684;28;20365;-78
2022/10/26 07:22:37;;;;;;;;;;;7.30;99.90;;;;;;4958393;28;19961;-79
2022/10/26 07:25:03;;;;;;;;;;;7.20;99.90;;;;;;4953973;28;19914;-79
2022/10/26 07:27:28;;;;;;;;;;;7.20;99.90;;;;;;4960675;28;20312;-79
2022/10/26 07:29:57;;;;;;;;;;;7.30;99.90;;;;;;4945995;28;20069;-82
2022/10/26 07:32:23;;;;;;;;;;;7.30;99.90;;;;;;4961220;28;19922;-80
2022/10/26 07:34:48;;;;;;;;;;;7.40;99.90;;;;;;4960019;28;19914;-81
2022/10/26 07:37:13;;;;;;;;;;;7.50;99.90;;;;;;4961594;28;19914;-80
2022/10/26 07:39:39;;;;;;;;;;;7.70;99.90;;;;;;4955703;28;19910;-78
2022/10/26 07:42:04;;;;;;;;;;;7.80;99.90;;;;;;4957852;28;19926;-80
2022/10/26 07:44:30;;;;;;;;;;;7.90;99.90;;;;;;4957958;28;19914;-80
2022/10/26 07:46:55;;;;;;;;;;;8.00;99.90;;;;;;4967403;28;19910;-79
2022/10/26 07:49:21;;;;;;;;;;;8.20;99.90;;;;;;4959060;28;19925;-79
2022/10/26 07:51:46;;;;;;;;;;;8.20;99.90;;;;;;4957110;28;20317;-78
2022/10/26 07:54:12;;;;;;;;;;;8.40;99.90;;;;;;4963435;28;19918;-79
2022/10/26 07:56:37;;;;;;;;;;;8.40;99.90;;;;;;4961384;28;19911;-80
2022/10/26 07:59:02;;;;;;;;;;;8.60;99.90;;;;;;4960317;28;19918;-79
2022/10/26 08:01:28;;;;;;;;;;;8.80;99.90;;;;;;4958679;28;20301;-79
2022/10/26 08:03:54;;;;;;;;;;;9.00;99.90;;;;;;4953316;28;19917;-79
2022/10/26 08:06:20;;;;;;;;;;;9.10;99.90;;;;;;4962777;28;20389;-79
2022/10/26 08:08:46;;;;;;;;;;;9.20;99.90;;;;;;4957346;28;20385;-80
2022/10/26 08:11:11;;;;;;;;;;;9.30;99.90;;;;;;4977769;28;19996;-78
2022/10/26 08:13:37;;;;;;;;;;;9.50;99.90;;;;;;4968617;28;19922;-80
2022/10/26 08:16:03;;;;;;;;;;;9.70;99.90;;;;;;4953235;28;19914;-80
2022/10/26 08:18:29;;;;;;;;;;;9.80;99.90;;;;;;4957006;28;20050;-84
2022/10/26 08:20:59;;;;;;;;;;;10.00;99.90;;;;;;4966806;28;20468;-82
2022/10/26 08:23:25;;;;;;;;;;;10.10;99.90;;;;;;4965398;28;19938;-77
2022/10/26 08:25:51;;;;;;;;;;;10.30;99.90;;;;;;4977176;28;19909;-76
2022/10/26 08:28:16;;;;;;;;;;;10.50;99.90;;;;;;4967737;28;19933;-75
2022/10/26 08:31:05;;;;;;;;;;;10.60;99.90;;;;;;4959295;28;20309;-76
2022/10/26 08:33:30;;;;;;;;;;;10.80;99.90;;;;;;4955295;28;20345;-76
2022/10/26 08:36:03;;;;;;;;;;;11.00;99.90;;;;;;4966751;28;19910;-74
2022/10/26 08:38:28;;;;;;;;;;;11.10;99.90;;;;;;4971917;28;20001;-74
2022/10/26 08:40:55;;;;;;;;;;;11.20;99.90;;;;;;4971730;28;19941;-74
2022/10/26 08:43:29;;;;;;;;;;;11.40;99.90;;;;;;4964581;28;19917;-74
2022/10/26 08:46:03;;;;;;;;;;;11.50;99.90;;;;;;4969684;28;19914;-74
2022/10/26 08:48:33;;;;;;;;;;;11.60;99.90;;;;;;4966961;28;19989;-76
2022/10/26 08:51:00;;;;;;;;;;;11.80;99.90;;;;;;4972276;28;19909;-80
2022/10/26 08:53:32;;;;;;;;;;;11.90;99.90;;;;;;4961041;28;20008;-77
2022/10/26 08:56:14;;;;;;;;;;;12.10;99.90;;;;;;4966476;28;20783;-76
2022/10/26 08:58:44;;;;;;;;;;;12.30;99.90;;;;;;4980038;28;19920;-75
2022/10/26 09:01:09;;;;;;;;;;;12.50;99.90;;;;;;4963584;28;19917;-76
2022/10/26 09:03:35;;;;;;;;;;;12.60;99.90;;;;;;4964175;28;19917;-76
2022/10/26 09:06:19;;;;;;;;;;;12.80;99.90;;;;;;4968873;28;19969;-76
2022/10/26 09:08:53;;;;;;;;;;;12.90;99.90;;;;;;4975477;28;19971;-76
2022/10/26 09:11:38;;;;;;;;;;;13.00;99.90;;;;;;4958435;28;19920;-76
2022/10/26 09:14:03;;;;;;;;;;;13.10;99.90;;;;;;4960708;28;19921;-76
2022/10/26 09:16:29;;;;;;;;;;;13.20;99.90;;;;;;4972846;28;19920;-75
2022/10/26 09:19:09;;;;;;;;;;;13.50;99.90;;;;;;4966452;28;19918;-75
2022/10/26 09:21:35;;;;;;;;;;;13.60;99.90;;;;;;4972680;28;20324;-76
2022/10/26 09:24:12;;;;;;;;;;;13.70;99.90;;;;;;4959732;28;19968;-75
2022/10/26 09:26:43;;;;;;;;;;;13.80;99.90;;;;;;4974023;28;19909;-76
2022/10/26 09:29:12;;;;;;;;;;;13.90;99.90;;;;;;4970222;28;19945;-76
2022/10/26 09:31:39;;;;;;;;;;;14.10;99.90;;;;;;4957132;28;19961;-76
2022/10/26 09:34:05;;;;;;;;;;;14.20;99.90;;;;;;4961298;28;19917;-76
2022/10/26 09:36:32;;;;;;;;;;;14.30;99.90;;;;;;4972533;28;19937;-76
2022/10/26 09:39:27;;;;;;;;;;;14.40;99.90;;;;;;4970556;28;20000;-76
2022/10/26 09:41:56;;;;;;;;;;;14.40;99.90;;;;;;4962110;28;19910;-75
2022/10/26 09:44:26;;;;;;;;;;;14.50;99.90;;;;;;4953893;28;19911;-75
2022/10/26 09:46:54;;;;;;;;;;;14.60;99.90;;;;;;4970170;28;19916;-76
2022/10/26 09:49:22;;;;;;;;;;;14.60;99.90;;;;;;4960429;28;20538;-75
2022/10/26 09:51:48;;;;;;;;;;;14.70;99.90;;;;;;4956695;28;19965;-76
2022/10/26 09:54:15;;;;;;;;;;;14.90;99.90;;;;;;4970112;28;19913;-75
2022/10/26 09:56:41;;;;;;;;;;;14.90;99.90;;;;;;4972371;28;20068;-75
2022/10/26 09:59:09;;;;;;;;;;;15.00;99.90;;;;;;4967372;28;20050;-76
2022/10/26 10:01:35;;;;;;;;;;;15.10;99.90;;;;;;4958306;28;19910;-76
2022/10/26 10:04:08;;;;;;;;;;;15.10;99.90;;;;;;4964507;28;19937;-76
2022/10/26 10:06:34;;;;;;;;;;;15.20;99.90;;;;;;4972676;28;19939;-75
2022/10/26 10:09:05;;;;;;;;;;;15.40;99.90;;;;;;4971003;28;20606;-75
2022/10/26 10:11:57;;;;;;;;;;;15.50;99.90;;;;;;4957848;28;19949;-75
2022/10/26 10:14:24;;;;;;;;;;;15.70;99.90;;;;;;4965127;28;19918;-76
2022/10/26 10:16:54;;;;;;;;;;;15.90;99.90;;;;;;4966985;28;19914;-74
2022/10/26 10:19:21;;;;;;;;;;;15.90;99.90;;;;;;4964809;28;20502;-75
2022/10/26 10:21:48;;;;;;;;;;;16.00;99.90;;;;;;4956636;28;19913;-75
2022/10/26 10:24:30;;;;;;;;;;;16.20;99.90;;;;;;4956422;28;19918;-73
2022/10/26 10:27:03;;;;;;;;;;;16.30;99.90;;;;;;4977180;28;20683;-76
2022/10/26 10:29:33;;;;;;;;;;;16.40;99.90;;;;;;4964451;28;20294;-74
2022/10/26 10:32:00;;;;;;;;;;;16.40;99.90;;;;;;4952722;28;20570;-76
2022/10/26 10:34:26;;;;;;;;;;;16.50;99.90;;;;;;4966408;28;19933;-73
2022/10/26 10:36:52;;;;;;;;;;;16.60;99.90;;;;;;4973057;28;19906;-74
2022/10/26 10:39:34;;;;;;;;;;;16.80;99.90;;;;;;4967299;28;19910;-73
2022/10/26 10:42:01;;;;;;;;;;;17.10;99.90;;;;;;4972712;28;19909;-74
2022/10/26 10:44:28;;;;;;;;;;;17.80;99.90;;;;;;4975843;28;19910;-74
2022/10/26 10:47:01;;;;;;;;;;;19.60;99.90;;;;;;4964782;28;20000;-74
2022/10/26 10:49:27;;;;;;;;;;;20.50;95.50;;;;;;4977076;28;19918;-74
2022/10/26 10:51:54;;;;;;;;;;;21.50;91.20;;;;;;4976429;28;19937;-74
2022/10/26 10:54:22;;;;;;;;;;;21.10;90.30;;;;;;4968971;28;19914;-74
2022/10/26 10:56:50;;;;;;;;;;;20.30;91.10;;;;;;4954083;28;20285;-75
2022/10/26 10:59:19;;;;;;;;;;;20.30;91.20;;;;;;4971046;28;19921;-74
2022/10/26 11:01:49;;;;;;;;;;;20.50;89.40;;;;;;4960293;28;19936;-72
2022/10/26 11:04:26;;;;;;;;;;;20.10;91.80;;;;;;4964015;28;19934;-75
2022/10/26 11:06:53;;;;;;;;;;;20.20;92.10;;;;;;4962698;28;20048;-76
2022/10/26 11:09:20;;;;;;;;;;;23.30;82.70;;;;;;4955016;28;19917;-75
2022/10/26 11:11:47;;;;;;;;;;;27.20;66.60;;;;;;4963391;28;19978;-75
2022/10/26 11:14:19;;;;;;;;;;;29.10;55.70;;;;;;4957250;28;20187;-75
2022/10/26 11:16:47;;;;;;;;;;;29.90;53.60;;;;;;4945874;28;19917;-75
2022/10/26 11:19:12;;;;;;;;;;;31.20;49.90;;;;;;4957319;28;19913;-75
2022/10/26 11:21:37;;;;;;;;;;;32.20;48.50;;;;;;4961237;28;19918;-74
2022/10/26 11:24:12;;;;;;;;;;;32.50;45.50;;;;;;4959948;28;20406;-75
2022/10/26 11:26:39;;;;;;;;;;;32.10;44.90;;;;;;4961645;28;20316;-75
2022/10/26 11:29:15;;;;;;;;;;;32.60;44.50;;;;;;4955306;28;19914;-75
2022/10/26 11:31:43;;;;;;;;;;;33.10;44.10;;;;;;4955412;28;19926;-75
2022/10/26 11:34:38;;;;;;;;;;;33.20;43.10;;;;;;4963960;28;20395;-75
2022/10/26 11:37:08;;;;;;;;;;;33.20;42.00;;;;;;4941751;28;19919;-76
2022/10/26 11:39:44;;;;;;;;;;;33.90;42.20;;;;;;4966723;28;19917;-75
2022/10/26 11:42:30;;;;;;;;;;;34.10;42.20;;;;;;4961323;28;19918;-75
2022/10/26 11:45:00;;;;;;;;;;;34.20;40.20;;;;;;4970701;28;19961;-75
2022/10/26 11:47:34;;;;;;;;;;;34.30;40.90;;;;;;4975087;28;19914;-75
2022/10/26 11:50:02;;;;;;;;;;;34.70;40.00;;;;;;4970106;28;19992;-75
2022/10/26 11:52:32;;;;;;;;;;;34.80;40.40;;;;;;4967381;28;19985;-75
2022/10/26 11:55:03;;;;;;;;;;;35.10;40.10;;;;;;4968492;28;20139;-75
2022/10/26 11:57:32;;;;;;;;;;;32.10;43.00;;;;;;4962780;28;19910;-76
2022/10/26 12:00:05;;;;;;;;;;;32.90;42.60;;;;;;4953298;28;19938;-76
2022/10/26 12:02:32;;;;;;;;;;;33.30;41.30;;;;;;4954934;28;20432;-76
2022/10/26 12:05:01;;;;;;;;;;;33.20;41.40;;;;;;4967036;28;20509;-75
2022/10/26 12:07:31;;;;;;;;;;;31.10;44.20;;;;;;4961687;28;19922;-76
2022/10/26 12:09:59;;;;;;;;;;;29.90;48.60;;;;;;4956176;28;19910;-76
2022/10/26 12:12:27;;;;;;;;;;;31.30;45.30;;;;;;4961976;28;19915;-74
2022/10/26 12:15:12;;;;;;;;;;;33.70;43.20;;;;;;4954838;28;20324;-76
2022/10/26 12:17:41;;;;;;;;;;;34.90;40.90;;;;;;4960315;28;20336;-76
2022/10/26 12:20:20;;;;;;;;;;;34.10;40.40;;;;;;4954441;28;19917;-76
2022/10/26 12:22:46;;;;;;;;;;;34.40;40.90;;;;;;4960189;28;19910;-76
2022/10/26 12:25:11;;;;;;;;;;;34.80;40.10;;;;;;4955802;28;19913;-76
2022/10/26 12:27:37;;;;;;;;;;;33.80;40.70;;;;;;4968629;28;20037;-76
2022/10/26 12:30:17;;;;;;;;;;;33.70;43.00;;;;;;4958734;28;19922;-77
2022/10/26 12:32:43;;;;;;;;;;;33.10;42.20;;;;;;4972496;28;19997;-76
2022/10/26 12:35:27;;;;;;;;;;;33.70;40.50;;;;;;4961697;28;20056;-76
2022/10/26 12:37:52;;;;;;;;;;;32.90;42.10;;;;;;4966674;28;20021;-77
2022/10/26 12:40:31;;;;;;;;;;;35.90;40.00;;;;;;4965958;28;20013;-74
2022/10/26 12:42:57;;;;;;;;;;;35.60;38.30;;;;;;4959313;28;20100;-76
2022/10/26 12:45:23;;;;;;;;;;;35.40;39.10;;;;;;4949423;28;19953;-74
2022/10/26 12:47:48;;;;;;;;;;;35.40;38.30;;;;;;4965363;28;20388;-76
2022/10/26 12:50:14;;;;;;;;;;;35.20;38.20;;;;;;4963471;28;19938;-77
2022/10/26 12:53:00;;;;;;;;;;;35.10;38.60;;;;;;4957586;28;19910;-76
2022/10/26 12:55:44;;;;;;;;;;;35.70;39.00;;;;;;4951507;28;19945;-76
2022/10/26 12:58:17;;;;;;;;;;;36.90;37.50;;;;;;4961308;28;19917;-76
2022/10/26 13:00:57;;;;;;;;;;;36.80;38.30;;;;;;4964284;28;19924;-76
2022/10/26 13:03:23;;;;;;;;;;;37.00;36.80;;;;;;4966471;28;19987;-76
2022/10/26 13:06:16;;;;;;;;;;;37.20;36.70;;;;;;4961691;28;20365;-75
2022/10/26 13:08:46;;;;;;;;;;;36.90;37.30;;;;;;4956881;28;19917;-76
2022/10/26 13:11:15;;;;;;;;;;;35.50;38.20;;;;;;4956410;28;20380;-76
2022/10/26 13:13:40;;;;;;;;;;;32.10;42.80;;;;;;4955920;28;20116;-76
2022/10/26 13:16:09;;;;;;;;;;;29.90;46.70;;;;;;4951787;28;19925;-76
2022/10/26 13:18:40;;;;;;;;;;;28.30;49.00;;;;;;4949335;28;20692;-76
2022/10/26 13:21:11;;;;;;;;;;;26.90;51.30;;;;;;4962120;28;19941;-73
2022/10/26 13:23:38;;;;;;;;;;;24.10;58.20;;;;;;4955979;28;20452;-75
2022/10/26 13:26:11;;;;;;;;;;;22.30;64.00;;;;;;4960266;28;20385;-75
2022/10/26 13:28:36;;;;;;;;;;;21.30;68.40;;;;;;4957228;28;20021;-76
2022/10/26 13:31:03;;;;;;;;;;;20.70;71.90;;;;;;4956519;23;20379;-77
2022/10/26 13:33:34;;;;;;;;;;;20.30;75.90;;;;;;4962299;28;19960;-78
2022/10/26 13:36:00;;;;;;;;;;;20.00;78.40;;;;;;4964944;28;19914;-77
2022/10/26 13:38:29;;;;;;;;;;;19.70;80.30;;;;;;4955965;28;19914;-77
2022/10/26 13:41:01;;;;;;;;;;;19.50;80.60;;;;;;4954551;28;20377;-77
2022/10/26 13:43:26;;;;;;;;;;;19.40;82.40;;;;;;4957545;28;19914;-79
2022/10/26 13:45:54;;;;;;;;;;;19.30;85.20;;;;;;4953738;28;19984;-78
2022/10/26 13:48:27;;;;;;;;;;;19.30;87.70;;;;;;4963624;28;19960;-78
2022/10/26 13:50:54;;;;;;;;;;;19.40;88.10;;;;;;4957772;28;19906;-79
2022/10/26 13:53:22;;;;;;;;;;;19.30;89.90;;;;;;4955150;28;20337;-78
2022/10/26 13:55:59;;;;;;;;;;;19.70;85.80;;;;;;4951821;28;20005;-79
2022/10/26 13:58:30;;;;;;;;;;;20.30;84.00;;;;;;4958530;28;20266;-79
2022/10/26 14:01:03;;;;;;;;;;;21.50;79.70;;;;;;4955255;28;19929;-79
2022/10/26 14:03:28;;;;;;;;;;;25.20;67.20;;;;;;4953240;28;19921;-79
2022/10/26 14:05:54;;;;;;;;;;;26.30;59.90;;;;;;4967252;28;19909;-78
2022/10/26 14:08:20;;;;;;;;;;;25.90;61.40;;;;;;4968238;28;19914;-78
2022/10/26 14:10:47;;;;;;;;;;;29.10;55.40;;;;;;4970638;28;19914;-76
2022/10/26 14:13:14;;;;;;;;;;;29.90;51.40;;;;;;4965075;28;19918;-78
2022/10/26 14:15:42;;;;;;;;;;;30.60;50.10;;;;;;4964108;28;19911;-79
2022/10/26 14:18:12;;;;;;;;;;;30.40;49.40;;;;;;4956291;28;20016;-78
2022/10/26 14:20:37;;;;;;;;;;;30.70;48.70;;;;;;4970467;28;19917;-79
2022/10/26 14:23:02;;;;;;;;;;;31.10;48.30;;;;;;4974123;28;19906;-78
2022/10/26 14:25:30;;;;;;;;;;;30.70;49.30;;;;;;4975007;28;19917;-79
2022/10/26 14:27:56;;;;;;;;;;;29.00;51.30;;;;;;4972138;28;20666;-78
2022/10/26 14:30:26;;;;;;;;;;;25.70;58.50;;;;;;4945178;28;19926;-79
2022/10/26 14:32:52;;;;;;;;;;;23.20;64.50;;;;;;4953903;28;20420;-78